Time;durP1;ratioP1;P1;durP2;ratioP2;P2;SDS_P1;SDS_P2;PMS_P1;PMS_P2;Temp;Humidity;BMP_temperature;BMP_pressure;BME280_temperature;BME280_humidity;BME280_pressure;Samples;Min_cycle;Max_cycle;Signal;HPM_P1;HPM_P2
2023/01/22 00:01:33;;;;;;;4.07;1.98;;;19.30;52.90;;;;;;5072401;28;20124;-65
2023/01/22 00:03:59;;;;;;;3.47;1.90;;;19.20;52.90;;;;;;5072719;28;20043;-65
2023/01/22 00:06:24;;;;;;;4.35;1.92;;;19.20;52.90;;;;;;5071785;28;20153;-65
2023/01/22 00:08:50;;;;;;;4.43;1.83;;;19.20;52.90;;;;;;5072784;28;20040;-65
2023/01/22 00:11:16;;;;;;;2.38;1.50;;;19.20;52.90;;;;;;5071631;28;20036;-65
2023/01/22 00:13:43;;;;;;;4.25;2.10;;;19.20;52.90;;;;;;5071739;28;20169;-66
2023/01/22 00:16:11;;;;;;;2.92;1.60;;;19.20;52.90;;;;;;5072421;28;20044;-65
2023/01/22 00:18:36;;;;;;;3.25;1.70;;;19.10;52.70;;;;;;5071681;28;20492;-65
2023/01/22 00:21:02;;;;;;;2.90;1.60;;;19.10;52.80;;;;;;5071291;28;20044;-65
2023/01/22 00:23:27;;;;;;;2.60;1.60;;;19.10;52.80;;;;;;5072023;28;20072;-65
2023/01/22 00:26:04;;;;;;;3.15;1.80;;;19.10;52.90;;;;;;5072120;28;20044;-64
2023/01/22 00:28:30;;;;;;;2.85;1.75;;;19.10;52.70;;;;;;5072269;28;20080;-64
2023/01/22 00:30:59;;;;;;;2.70;1.73;;;19.10;52.80;;;;;;5072462;28;20076;-65
2023/01/22 00:33:25;;;;;;;4.20;2.10;;;19.10;52.70;;;;;;5071254;28;20036;-65
2023/01/22 00:35:50;;;;;;;2.90;1.73;;;19.00;52.60;;;;;;5058281;28;20558;-65
2023/01/22 00:38:16;;;;;;;3.13;1.70;;;19.00;52.60;;;;;;5051724;28;20037;-65
2023/01/22 00:40:41;;;;;;;2.97;1.65;;;19.00;52.60;;;;;;5050969;28;20106;-65
2023/01/22 00:43:07;;;;;;;3.20;1.70;;;19.00;52.60;;;;;;5051649;28;20048;-65
2023/01/22 00:45:33;;;;;;;3.45;1.95;;;19.00;52.50;;;;;;5051482;28;20045;-65
2023/01/22 00:47:59;;;;;;;2.65;1.50;;;19.00;52.60;;;;;;5051416;28;20095;-64
2023/01/22 00:50:24;;;;;;;3.45;1.67;;;19.00;52.50;;;;;;5051597;28;20049;-65
2023/01/22 00:52:50;;;;;;;4.53;1.70;;;19.00;52.50;;;;;;5052036;28;20043;-65
2023/01/22 00:55:16;;;;;;;3.97;1.75;;;19.00;52.50;;;;;;5051025;28;20183;-65
2023/01/22 00:57:41;;;;;;;3.03;1.60;;;18.90;52.50;;;;;;5051108;28;20041;-64
2023/01/22 01:00:09;;;;;;;2.60;1.60;;;18.90;52.50;;;;;;5055328;28;20087;-65
2023/01/22 01:03:25;;;;;;;4.15;1.60;;;18.90;52.50;;;;;;5055456;28;20040;-65
2023/01/22 01:05:23;;;;;;;2.33;1.40;;;18.90;52.50;;;;;;5055435;28;20053;-65
2023/01/22 01:07:48;;;;;;;3.03;1.70;;;18.90;52.40;;;;;;5056173;28;20040;-65
2023/01/22 01:10:14;;;;;;;3.05;1.63;;;18.90;52.40;;;;;;5054961;28;20477;-65
2023/01/22 01:12:39;;;;;;;2.90;1.50;;;18.90;52.40;;;;;;5054922;28;20067;-65
2023/01/22 01:15:06;;;;;;;4.57;1.80;;;18.90;52.50;;;;;;5055587;28;20053;-64
2023/01/22 01:17:31;;;;;;;3.92;1.92;;;18.90;52.40;;;;;;5054925;28;20056;-65
2023/01/22 01:19:57;;;;;;;2.90;1.65;;;18.90;52.40;;;;;;5055490;28;20045;-65
2023/01/22 01:22:22;;;;;;;3.03;1.50;;;18.90;52.40;;;;;;5054624;28;20116;-65
2023/01/22 01:24:48;;;;;;;3.45;1.60;;;18.80;52.40;;;;;;5055707;28;20068;-65
2023/01/22 01:27:13;;;;;;;3.58;1.90;;;18.90;52.40;;;;;;5055364;28;20045;-65
2023/01/22 01:29:39;;;;;;;2.78;1.30;;;18.80;52.30;;;;;;5054998;28;20044;-64
2023/01/22 01:32:05;;;;;;;3.30;1.50;;;18.80;52.30;;;;;;5054829;28;20045;-64
2023/01/22 01:34:30;;;;;;;2.33;1.27;;;18.80;52.40;;;;;;5054841;28;20036;-65
2023/01/22 01:36:56;;;;;;;3.30;1.50;;;18.80;52.30;;;;;;5054641;28;20045;-65
2023/01/22 01:39:21;;;;;;;3.05;1.65;;;18.80;52.30;;;;;;5055163;28;20115;-65
2023/01/22 01:41:47;;;;;;;2.17;1.50;;;18.80;52.30;;;;;;5054226;28;20039;-65
2023/01/22 01:44:15;;;;;;;3.20;1.75;;;18.80;52.30;;;;;;5054017;28;20056;-65
2023/01/22 01:46:50;;;;;;;2.78;1.40;;;18.80;52.30;;;;;;5055336;28;20037;-65
2023/01/22 01:49:28;;;;;;;3.13;1.35;;;18.80;52.20;;;;;;5054825;28;20048;-65
2023/01/22 01:51:55;;;;;;;3.13;1.40;;;18.80;52.30;;;;;;5052301;28;20048;-65
2023/01/22 01:54:21;;;;;;;2.47;1.40;;;18.80;52.30;;;;;;5053119;28;20542;-65
2023/01/22 01:56:50;;;;;;;1.90;1.20;;;18.80;52.30;;;;;;5053755;28;20044;-65
2023/01/22 01:59:17;;;;;;;3.17;1.55;;;18.80;52.30;;;;;;5035992;28;20037;-65
2023/01/22 02:01:46;;;;;;;3.17;1.58;;;18.80;52.30;;;;;;5053493;28;20052;-65
2023/01/22 02:04:11;;;;;;;2.47;1.33;;;18.80;52.30;;;;;;5053206;28;20072;-65
2023/01/22 02:06:37;;;;;;;2.17;1.40;;;18.80;52.30;;;;;;5054109;28;20481;-65
2023/01/22 02:09:02;;;;;;;3.13;1.60;;;18.80;52.30;;;;;;5054725;28;20404;-66
2023/01/22 02:11:28;;;;;;;4.28;1.50;;;18.80;52.40;;;;;;5068707;28;20089;-65
2023/01/22 02:14:09;;;;;;;2.90;1.38;;;18.80;52.40;;;;;;5073248;28;20037;-65
2023/01/22 02:16:34;;;;;;;2.70;1.25;;;18.80;52.40;;;;;;5073646;28;20052;-65
2023/01/22 02:19:01;;;;;;;3.03;1.45;;;18.80;52.40;;;;;;5073836;28;20040;-65
2023/01/22 02:21:35;;;;;;;1.80;1.05;;;18.80;52.30;;;;;;5074251;28;20067;-65
2023/01/22 02:24:08;;;;;;;2.33;1.08;;;18.80;52.30;;;;;;5074356;28;20503;-65
2023/01/22 02:26:34;;;;;;;2.70;1.40;;;18.80;52.30;;;;;;5073536;28;20404;-65
2023/01/22 02:28:59;;;;;;;1.80;1.20;;;18.80;52.30;;;;;;5074003;28;20508;-65
2023/01/22 02:31:25;;;;;;;1.88;1.02;;;18.80;52.30;;;;;;5073862;28;20472;-65
2023/01/22 02:33:51;;;;;;;2.92;1.30;;;18.80;52.30;;;;;;5073853;28;20079;-65
2023/01/22 02:36:16;;;;;;;3.15;1.00;;;18.80;52.20;;;;;;5074054;28;20045;-65
2023/01/22 02:38:42;;;;;;;1.90;1.13;;;18.80;52.20;;;;;;5074205;28;20070;-65
2023/01/22 02:41:07;;;;;;;2.50;1.20;;;18.90;52.30;;;;;;5073139;28;20056;-65
2023/01/22 02:43:33;;;;;;;2.05;1.10;;;18.90;52.20;;;;;;5074002;28;20048;-65
2023/01/22 02:45:59;;;;;;;2.03;1.10;;;18.90;52.10;;;;;;5073828;28;20385;-65
2023/01/22 02:48:24;;;;;;;1.77;0.90;;;18.90;52.10;;;;;;5072777;28;20067;-65
2023/01/22 02:50:50;;;;;;;2.35;1.17;;;18.90;52.10;;;;;;5074207;28;20047;-66
2023/01/22 02:53:15;;;;;;;2.13;1.20;;;18.90;52.10;;;;;;5073649;28;20419;-64
2023/01/22 02:55:43;;;;;;;1.70;1.20;;;18.90;52.00;;;;;;5073343;28;20396;-65
2023/01/22 02:58:09;;;;;;;3.03;1.45;;;18.90;52.00;;;;;;5073446;28;20492;-65
2023/01/22 03:00:34;;;;;;;1.60;0.90;;;18.90;52.00;;;;;;5069597;28;20128;-65
2023/01/22 03:03:06;;;;;;;2.70;0.95;;;18.90;51.90;;;;;;5053002;28;20088;-65
2023/01/22 03:05:34;;;;;;;3.40;1.20;;;18.90;51.90;;;;;;5052902;28;20055;-65
2023/01/22 03:08:00;;;;;;;2.20;1.08;;;18.90;51.90;;;;;;5052502;28;20428;-65
2023/01/22 03:10:26;;;;;;;2.08;1.10;;;18.90;51.90;;;;;;5053402;28;20492;-65
2023/01/22 03:21:15;;;;;;;2.53;1.00;;;18.90;51.70;;;;;;5053487;28;20072;-65
2023/01/22 03:23:42;;;;;;;2.85;1.10;;;19.00;51.70;;;;;;5051791;28;20051;-65
2023/01/22 03:26:07;;;;;;;1.40;0.80;;;19.00;51.70;;;;;;5053455;28;20123;-65
2023/01/22 03:28:33;;;;;;;2.45;0.80;;;19.00;51.70;;;;;;5052921;28;20183;-65
2023/01/22 03:30:59;;;;;;;1.45;0.75;;;19.00;51.60;;;;;;5052488;28;20048;-65
2023/01/22 03:33:24;;;;;;;2.40;0.90;;;19.00;51.60;;;;;;5052534;28;20093;-65
2023/01/22 03:35:50;;;;;;;2.05;0.93;;;19.00;51.60;;;;;;5053107;28;20477;-65
2023/01/22 03:38:15;;;;;;;2.22;0.90;;;19.00;51.50;;;;;;5052179;28;20041;-65
2023/01/22 03:40:41;;;;;;;2.40;0.82;;;19.00;51.50;;;;;;5053212;28;20051;-65
2023/01/22 03:43:06;;;;;;;1.88;1.00;;;19.00;51.50;;;;;;5052097;28;20481;-65
2023/01/22 03:45:32;;;;;;;2.22;0.80;;;19.00;51.50;;;;;;5052918;28;20053;-65
2023/01/22 03:47:58;;;;;;;1.05;0.85;;;19.00;51.50;;;;;;5052655;28;20476;-65
2023/01/22 03:50:24;;;;;;;1.52;0.80;;;19.00;51.50;;;;;;5050827;28;20055;-65
2023/01/22 03:52:49;;;;;;;2.35;0.98;;;19.00;51.50;;;;;;5053082;28;20491;-65
2023/01/22 03:55:15;;;;;;;1.88;0.80;;;19.10;51.50;;;;;;5050975;28;20048;-65
2023/01/22 03:57:41;;;;;;;2.00;0.80;;;19.10;51.40;;;;;;5051975;28;20469;-65
2023/01/22 04:00:07;;;;;;;1.67;0.80;;;19.10;51.40;;;;;;5068050;28;20132;-65
2023/01/22 04:02:33;;;;;;;2.05;0.82;;;19.10;51.40;;;;;;5052182;28;20040;-65
2023/01/22 04:04:58;;;;;;;2.35;0.90;;;19.10;51.40;;;;;;5052064;28;20044;-65
2023/01/22 04:07:24;;;;;;;1.83;0.70;;;19.10;51.30;;;;;;5052476;28;20554;-65
2023/01/22 04:09:50;;;;;;;2.00;0.95;;;19.10;51.30;;;;;;5052107;28;20069;-65
2023/01/22 04:12:16;;;;;;;2.08;1.05;;;19.10;51.30;;;;;;5051728;28;20045;-64
2023/01/22 04:14:41;;;;;;;1.77;0.68;;;19.20;51.30;;;;;;5052235;28;20135;-65
2023/01/22 04:17:07;;;;;;;1.02;0.60;;;19.20;51.30;;;;;;5052613;28;20040;-65
2023/01/22 04:19:32;;;;;;;2.63;0.80;;;19.20;51.20;;;;;;5051222;28;20077;-65
2023/01/22 04:21:58;;;;;;;2.03;1.02;;;19.20;51.10;;;;;;5052320;28;20059;-65
2023/01/22 04:24:24;;;;;;;1.15;0.68;;;19.20;51.10;;;;;;5051971;28;20069;-65
2023/01/22 04:26:51;;;;;;;2.33;0.70;;;19.20;51.10;;;;;;5051746;28;20044;-64
2023/01/22 04:29:17;;;;;;;2.50;0.70;;;19.20;51.00;;;;;;5051989;28;20052;-65
2023/01/22 04:31:42;;;;;;;0.82;0.70;;;19.20;51.00;;;;;;5052459;28;20037;-65
2023/01/22 04:34:08;;;;;;;1.15;0.63;;;19.20;50.90;;;;;;5051157;28;20128;-64
2023/01/22 04:36:33;;;;;;;1.70;0.70;;;19.20;50.90;;;;;;5052117;28;20041;-65
2023/01/22 04:38:59;;;;;;;2.63;0.77;;;19.20;50.90;;;;;;5052421;28;20041;-64
2023/01/22 04:41:24;;;;;;;1.52;0.68;;;19.20;50.90;;;;;;5050957;28;20053;-65
2023/01/22 04:43:50;;;;;;;2.08;0.63;;;19.30;50.90;;;;;;5052119;28;20045;-65
2023/01/22 04:46:15;;;;;;;0.70;0.50;;;19.30;50.80;;;;;;5050893;28;20131;-64
2023/01/22 04:48:41;;;;;;;1.48;0.70;;;19.30;50.80;;;;;;5051956;28;20127;-65
2023/01/22 04:51:07;;;;;;;1.75;0.73;;;19.30;50.80;;;;;;5052222;28;20557;-65
2023/01/22 04:53:32;;;;;;;0.73;0.43;;;19.30;50.80;;;;;;5051243;28;20835;-65
2023/01/22 04:55:58;;;;;;;1.00;0.77;;;19.30;50.70;;;;;;5051964;28;20048;-65
2023/01/22 04:58:23;;;;;;;1.35;0.60;;;19.30;50.70;;;;;;5051977;28;20053;-65
2023/01/22 05:00:49;;;;;;;1.27;0.70;;;19.30;50.70;;;;;;5047724;28;20041;-65
2023/01/22 05:03:14;;;;;;;1.52;0.50;;;19.30;50.60;;;;;;5036906;28;20133;-65
2023/01/22 05:05:40;;;;;;;1.17;0.52;;;19.30;50.50;;;;;;5051413;28;20060;-65
2023/01/22 05:08:05;;;;;;;0.93;0.50;;;19.30;50.50;;;;;;5050949;28;20056;-65
2023/01/22 05:10:31;;;;;;;1.23;0.57;;;19.30;50.40;;;;;;5051903;28;20052;-65
2023/01/22 05:12:58;;;;;;;0.95;0.50;;;19.30;51.10;;;;;;5051657;28;20054;-65
2023/01/22 05:15:23;;;;;;;2.33;0.60;;;19.30;50.40;;;;;;5050066;28;20061;-65
2023/01/22 05:17:49;;;;;;;0.68;0.50;;;19.30;50.30;;;;;;5071746;28;20531;-65
2023/01/22 05:20:15;;;;;;;1.63;0.70;;;19.30;50.30;;;;;;5071746;28;20048;-65
2023/01/22 05:22:40;;;;;;;1.40;0.70;;;19.40;50.30;;;;;;5071318;28;20115;-65
2023/01/22 05:25:06;;;;;;;1.27;0.50;;;19.40;50.30;;;;;;5071593;28;20045;-65
2023/01/22 05:27:32;;;;;;;5.10;0.85;;;19.40;50.20;;;;;;5071807;28;20041;-65
2023/01/22 05:29:57;;;;;;;1.13;0.50;;;19.40;50.20;;;;;;5071084;28;20036;-64
2023/01/22 05:32:23;;;;;;;0.60;0.30;;;19.40;50.20;;;;;;5071200;28;20032;-65
2023/01/22 05:34:48;;;;;;;1.75;0.68;;;19.40;50.20;;;;;;5071880;28;20044;-65
2023/01/22 05:37:14;;;;;;;1.70;0.80;;;19.40;50.20;;;;;;5070846;28;20128;-65
2023/01/22 05:39:39;;;;;;;0.90;0.50;;;19.40;50.20;;;;;;5071313;28;20037;-65
2023/01/22 05:42:05;;;;;;;0.90;0.55;;;19.40;50.20;;;;;;5071606;28;20052;-65
2023/01/22 05:44:31;;;;;;;0.80;0.40;;;19.50;50.20;;;;;;5070609;28;20462;-65
2023/01/22 05:46:56;;;;;;;0.80;0.50;;;19.40;50.10;;;;;;5074497;28;20475;-65
2023/01/22 05:49:22;;;;;;;1.10;0.50;;;19.50;50.20;;;;;;5067422;28;20041;-66
2023/01/22 05:51:47;;;;;;;0.57;0.47;;;19.50;50.20;;;;;;5063908;28;20076;-65
2023/01/22 05:54:13;;;;;;;0.70;0.40;;;19.50;50.20;;;;;;5074867;28;20083;-65
2023/01/22 05:56:38;;;;;;;1.15;0.43;;;19.50;50.80;;;;;;5074173;28;20568;-65
2023/01/22 05:59:04;;;;;;;1.05;0.40;;;19.50;50.10;;;;;;5073247;28;20416;-65
2023/01/22 06:01:29;;;;;;;1.00;0.40;;;19.50;50.10;;;;;;5074794;28;20044;-65
2023/01/22 06:03:55;;;;;;;0.65;0.40;;;19.50;50.20;;;;;;5074317;28;20045;-65
2023/01/22 06:06:21;;;;;;;1.30;0.52;;;19.50;50.10;;;;;;5074466;28;20123;-65
2023/01/22 06:08:46;;;;;;;0.70;0.50;;;19.50;50.10;;;;;;5074872;28;20446;-65
2023/01/22 06:11:13;;;;;;;0.50;0.40;;;19.50;50.10;;;;;;5073598;28;20079;-65
2023/01/22 06:13:39;;;;;;;1.17;0.40;;;19.50;50.10;;;;;;5074648;28;20048;-65
2023/01/22 06:16:05;;;;;;;1.25;0.50;;;19.50;50.10;;;;;;5053815;28;20056;-65
2023/01/22 06:18:31;;;;;;;1.08;0.40;;;19.50;50.10;;;;;;5052611;28;20040;-65
2023/01/22 06:21:04;;;;;;;0.95;0.50;;;19.60;50.20;;;;;;5054738;28;20047;-65
2023/01/22 06:23:29;;;;;;;1.00;0.50;;;19.60;50.20;;;;;;5054158;28;20049;-65
2023/01/22 06:25:56;;;;;;;0.60;0.40;;;19.60;50.20;;;;;;5053761;28;20086;-65
2023/01/22 06:28:22;;;;;;;1.23;0.40;;;19.60;50.20;;;;;;5054135;28;20048;-65
2023/01/22 06:30:48;;;;;;;0.70;0.38;;;19.60;50.20;;;;;;5054585;28;20041;-65
2023/01/22 06:33:13;;;;;;;0.90;0.40;;;19.60;50.10;;;;;;5053372;28;20369;-65
2023/01/22 06:35:39;;;;;;;0.50;0.30;;;19.60;50.20;;;;;;5052973;28;20041;-65
2023/01/22 06:38:05;;;;;;;0.80;0.30;;;19.60;50.10;;;;;;5054278;28;20049;-65
2023/01/22 06:40:30;;;;;;;0.90;0.30;;;19.60;50.10;;;;;;5052975;28;20051;-65
2023/01/22 06:42:56;;;;;;;0.73;0.40;;;19.60;50.10;;;;;;5053949;28;20044;-65
2023/01/22 06:45:25;;;;;;;0.40;0.30;;;19.60;50.10;;;;;;5053516;28;20392;-65
2023/01/22 06:47:51;;;;;;;0.57;0.40;;;19.60;50.20;;;;;;5053226;28;20479;-66
2023/01/22 06:50:16;;;;;;;0.63;0.22;;;19.60;50.10;;;;;;5053470;28;20055;-65
2023/01/22 06:52:42;;;;;;;1.30;0.40;;;19.60;50.10;;;;;;5053847;28;20492;-65
2023/01/22 06:55:08;;;;;;;0.55;0.32;;;19.70;50.20;;;;;;5053245;28;20068;-65
2023/01/22 06:57:33;;;;;;;0.60;0.30;;;19.70;50.20;;;;;;5053567;28;20071;-65
2023/01/22 06:59:59;;;;;;;0.40;0.30;;;19.60;50.10;;;;;;5067099;28;20412;-65
2023/01/22 07:02:24;;;;;;;0.55;0.30;;;19.70;50.20;;;;;;5073660;28;20041;-65
2023/01/22 07:04:50;;;;;;;0.55;0.30;;;19.70;50.20;;;;;;5073551;28;20044;-65
2023/01/22 07:07:15;;;;;;;0.35;0.30;;;19.70;50.20;;;;;;5072720;28;20032;-65
2023/01/22 07:09:41;;;;;;;0.40;0.30;;;19.70;50.10;;;;;;5073478;28;20185;-65
2023/01/22 07:12:06;;;;;;;0.85;0.40;;;19.70;50.20;;;;;;5073460;28;20037;-65
2023/01/22 07:14:32;;;;;;;0.57;0.30;;;19.70;50.10;;;;;;5072114;28;20057;-65
2023/01/22 07:16:58;;;;;;;1.20;0.38;;;19.70;50.10;;;;;;5073493;28;20048;-65
2023/01/22 07:19:23;;;;;;;0.93;0.40;;;19.70;50.10;;;;;;5072945;28;20156;-65
2023/01/22 07:21:49;;;;;;;2.25;0.50;;;19.70;50.00;;;;;;5073055;28;20047;-65
2023/01/22 07:24:15;;;;;;;0.70;0.35;;;19.70;50.00;;;;;;5072705;28;20392;-63
2023/01/22 07:26:42;;;;;;;2.55;0.40;;;19.70;50.00;;;;;;5073435;28;20131;-63
2023/01/22 07:29:08;;;;;;;1.05;0.40;;;19.70;50.00;;;;;;5056533;28;20044;-63
2023/01/22 07:31:33;;;;;;;4.97;0.45;;;19.70;50.10;;;;;;5052970;28;20045;-63
2023/01/22 07:33:59;;;;;;;1.63;0.40;;;19.70;50.10;;;;;;5053190;28;20072;-63
2023/01/22 07:36:24;;;;;;;3.25;0.45;;;19.70;50.10;;;;;;5052261;28;20092;-63
2023/01/22 07:38:50;;;;;;;1.48;0.40;;;19.80;50.30;;;;;;5053274;28;20037;-63
2023/01/22 07:41:15;;;;;;;0.77;0.30;;;19.70;50.30;;;;;;5052813;28;20395;-63
2023/01/22 07:43:41;;;;;;;0.75;0.30;;;19.70;50.30;;;;;;5052532;28;20036;-63
2023/01/22 07:46:07;;;;;;;4.00;0.38;;;19.70;50.40;;;;;;5052602;28;20044;-62
2023/01/22 07:48:32;;;;;;;0.98;0.40;;;19.70;50.50;;;;;;5052555;28;20045;-63
2023/01/22 07:51:02;;;;;;;1.52;0.43;;;19.70;50.60;;;;;;5052317;28;20060;-64
2023/01/22 07:53:28;;;;;;;2.50;0.40;;;19.80;50.90;;;;;;5052857;28;20387;-63
2023/01/22 07:55:54;;;;;;;1.05;0.50;;;19.80;50.90;;;;;;5052668;28;20045;-64
2023/01/22 07:58:19;;;;;;;3.55;0.38;;;19.80;50.90;;;;;;5052174;28;20033;-63
2023/01/22 08:00:45;;;;;;;3.40;0.40;;;19.80;51.00;;;;;;5052090;28;20090;-64
2023/01/22 08:03:12;;;;;;;1.63;0.30;;;19.80;51.00;;;;;;5051330;28;20045;-64
2023/01/22 08:05:38;;;;;;;2.53;0.30;;;19.80;51.10;;;;;;5052185;28;20055;-64
2023/01/22 08:08:05;;;;;;;4.47;0.50;;;19.80;51.00;;;;;;5052160;28;20044;-64
2023/01/22 08:10:30;;;;;;;1.33;0.40;;;19.80;51.10;;;;;;5051449;28;20080;-64
2023/01/22 08:12:56;;;;;;;0.65;0.30;;;19.80;51.20;;;;;;5052173;28;20045;-65
2023/01/22 08:15:21;;;;;;;3.72;0.40;;;19.90;51.30;;;;;;5050158;28;20420;-64
2023/01/22 08:17:49;;;;;;;1.52;0.30;;;19.90;51.30;;;;;;5051592;28;20045;-64
2023/01/22 08:20:14;;;;;;;2.38;0.50;;;19.90;51.20;;;;;;5051881;28;20103;-64
2023/01/22 08:22:40;;;;;;;2.03;0.40;;;19.90;51.20;;;;;;5067784;28;20048;-64
2023/01/22 08:25:06;;;;;;;1.15;0.40;;;19.90;51.20;;;;;;5051331;28;20083;-64
2023/01/22 08:27:33;;;;;;;1.00;0.38;;;19.90;51.20;;;;;;5051998;28;20045;-65
2023/01/22 08:29:59;;;;;;;1.20;0.40;;;19.90;51.20;;;;;;5052293;28;20048;-65
2023/01/22 08:32:25;;;;;;;1.42;0.40;;;19.90;51.20;;;;;;5049417;28;20125;-64
2023/01/22 08:34:53;;;;;;;0.60;0.30;;;19.90;51.30;;;;;;5048996;28;20045;-66
2023/01/22 08:37:22;;;;;;;1.75;0.40;;;19.90;51.30;;;;;;5046306;28;20049;-67
2023/01/22 08:39:47;;;;;;;4.78;0.50;;;19.90;51.30;;;;;;5047590;28;20043;-66
2023/01/22 08:42:13;;;;;;;1.77;0.50;;;19.90;51.40;;;;;;5050134;28;20041;-66
2023/01/22 08:44:38;;;;;;;1.23;0.30;;;19.90;51.30;;;;;;5050035;28;20076;-66
2023/01/22 08:47:04;;;;;;;2.03;0.43;;;19.90;51.40;;;;;;5048734;28;20052;-66
2023/01/22 08:49:29;;;;;;;2.83;0.40;;;19.90;51.50;;;;;;5049279;28;20503;-66
2023/01/22 08:51:55;;;;;;;1.50;0.68;;;19.90;51.50;;;;;;5049594;28;20041;-66
2023/01/22 08:54:21;;;;;;;1.73;0.50;;;19.90;51.50;;;;;;5046147;28;20127;-65
2023/01/22 08:56:46;;;;;;;1.45;0.50;;;20.00;51.70;;;;;;5049204;28;20056;-66
2023/01/22 08:59:13;;;;;;;4.22;0.60;;;20.00;51.80;;;;;;5047363;28;20045;-66
2023/01/22 09:01:38;;;;;;;3.00;0.52;;;20.00;52.00;;;;;;5048183;28;20049;-66
2023/01/22 09:04:07;;;;;;;3.30;0.45;;;20.00;52.10;;;;;;5049026;28;20110;-66
2023/01/22 09:06:33;;;;;;;6.45;0.50;;;20.00;52.20;;;;;;5049019;28;20040;-67
2023/01/22 09:09:00;;;;;;;2.50;0.57;;;20.00;52.20;;;;;;5049306;28;20036;-66
2023/01/22 09:11:28;;;;;;;6.32;0.90;;;20.00;52.40;;;;;;5047586;28;20123;-66
2023/01/22 09:13:55;;;;;;;1.40;0.50;;;20.00;52.50;;;;;;5048483;28;20041;-65
2023/01/22 09:16:21;;;;;;;2.05;0.40;;;20.00;52.50;;;;;;5049370;28;20064;-66
2023/01/22 09:18:46;;;;;;;2.17;0.40;;;20.10;52.60;;;;;;5044228;28;20045;-66
2023/01/22 09:21:12;;;;;;;1.73;0.47;;;20.10;52.60;;;;;;5052062;28;20048;-68
2023/01/22 09:23:38;;;;;;;1.50;0.47;;;20.10;52.60;;;;;;5054691;28;20037;-66
2023/01/22 09:26:03;;;;;;;1.48;0.40;;;20.10;52.50;;;;;;5054332;28;20041;-66
2023/01/22 09:28:29;;;;;;;3.25;0.50;;;20.10;52.40;;;;;;5054349;28;20374;-66
2023/01/22 09:30:54;;;;;;;0.68;0.30;;;20.10;52.30;;;;;;5054586;28;20051;-66
2023/01/22 09:33:20;;;;;;;1.20;0.32;;;20.10;52.20;;;;;;5055485;28;20477;-66
2023/01/22 09:35:45;;;;;;;1.38;0.50;;;20.10;52.20;;;;;;5054743;28;20045;-66
2023/01/22 09:38:14;;;;;;;1.73;0.40;;;20.10;52.20;;;;;;5054912;28;20056;-66
2023/01/22 09:40:47;;;;;;;1.63;0.40;;;20.10;52.10;;;;;;5055638;28;20481;-66
2023/01/22 09:43:31;;;;;;;1.70;0.40;;;20.10;52.10;;;;;;5054214;28;20048;-66
2023/01/22 09:45:59;;;;;;;1.00;0.38;;;20.10;52.00;;;;;;5054537;28;20052;-66
2023/01/22 09:48:34;;;;;;;2.75;0.60;;;20.10;52.00;;;;;;5067083;28;20546;-66
2023/01/22 09:51:00;;;;;;;1.30;0.30;;;20.10;52.00;;;;;;5053400;28;20045;-66
2023/01/22 09:53:25;;;;;;;1.38;0.30;;;20.10;52.00;;;;;;5055019;28;20374;-66
2023/01/22 09:55:51;;;;;;;1.60;0.50;;;20.10;51.90;;;;;;5050253;28;20095;-65
2023/01/22 09:58:20;;;;;;;1.20;0.38;;;20.10;51.80;;;;;;5039781;28;20037;-66
2023/01/22 10:00:56;;;;;;;2.88;0.43;;;20.10;51.80;;;;;;5049234;28;20077;-66
2023/01/22 10:03:45;;;;;;;2.10;0.45;;;20.10;51.80;;;;;;5033203;28;20053;-66
2023/01/22 10:06:12;;;;;;;1.73;0.40;;;20.10;52.40;;;;;;5041428;28;20483;-66
2023/01/22 10:09:02;;;;;;;1.17;0.30;;;20.10;51.70;;;;;;5046496;28;20041;-66
2023/01/22 10:11:28;;;;;;;1.85;0.32;;;20.00;51.60;;;;;;5041020;28;20045;-66
2023/01/22 10:13:55;;;;;;;1.55;0.38;;;20.10;51.70;;;;;;5053583;28;20093;-65
2023/01/22 10:16:21;;;;;;;0.90;0.35;;;20.00;51.60;;;;;;5052945;28;20045;-66
2023/01/22 10:18:56;;;;;;;0.77;0.57;;;20.00;51.60;;;;;;5053906;28;20052;-65
2023/01/22 10:21:30;;;;;;;1.05;0.32;;;20.00;51.60;;;;;;5052953;28;20095;-66
2023/01/22 10:23:56;;;;;;;0.93;0.40;;;20.00;51.60;;;;;;5053516;28;20456;-66
2023/01/22 10:26:51;;;;;;;1.67;0.60;;;20.00;51.60;;;;;;5054160;28;20501;-66
2023/01/22 10:29:29;;;;;;;2.58;0.30;;;20.00;51.60;;;;;;5052631;28;20099;-66
2023/01/22 10:31:59;;;;;;;0.82;0.50;;;20.00;51.60;;;;;;5033809;28;20116;-66
2023/01/22 10:34:30;;;;;;;1.25;0.43;;;20.00;51.80;;;;;;5051431;28;20128;-67
2023/01/22 10:37:02;;;;;;;1.95;0.55;;;20.00;51.90;;;;;;5050782;28;20054;-69
2023/01/22 10:39:37;;;;;;;1.13;0.40;;;20.00;51.90;;;;;;5047902;28;20045;-67
2023/01/22 10:42:03;;;;;;;7.80;0.80;;;20.00;52.20;;;;;;5049427;28;20041;-67
2023/01/22 10:44:29;;;;;;;2.22;0.50;;;20.00;52.30;;;;;;5051380;28;20029;-68
2023/01/22 10:46:54;;;;;;;0.43;0.32;;;20.00;52.50;;;;;;5048468;28;20554;-68
2023/01/22 10:49:22;;;;;;;1.40;0.40;;;20.00;52.70;;;;;;5032812;28;20037;-69
2023/01/22 10:51:54;;;;;;;2.50;0.40;;;20.00;52.80;;;;;;5050626;28;20068;-68
2023/01/22 10:54:23;;;;;;;1.92;0.57;;;20.00;53.00;;;;;;5049487;28;20082;-68
2023/01/22 10:56:49;;;;;;;1.88;0.32;;;20.00;53.10;;;;;;5048464;28;20037;-70
2023/01/22 10:59:27;;;;;;;6.00;0.50;;;20.00;53.20;;;;;;5044697;28;20063;-67
2023/01/22 11:02:00;;;;;;;0.77;0.30;;;20.00;53.30;;;;;;5050097;28;20041;-68
2023/01/22 11:04:31;;;;;;;1.00;0.60;;;20.00;53.40;;;;;;5051406;28;20045;-69
2023/01/22 11:07:11;;;;;;;3.50;0.47;;;20.00;53.50;;;;;;5050425;28;20045;-69
2023/01/22 11:10:15;;;;;;;0.60;0.40;;;20.00;53.50;;;;;;5048680;28;20037;-69
2023/01/22 11:12:56;;;;;;;6.03;0.52;;;20.00;54.10;;;;;;5036519;28;20444;-69
2023/01/22 11:15:44;;;;;;;2.00;0.57;;;20.00;53.40;;;;;;5047126;28;20140;-67
2023/01/22 11:18:13;;;;;;;2.95;0.60;;;20.00;53.60;;;;;;5050375;28;20122;-68
2023/01/22 11:20:50;;;;;;;2.45;0.50;;;20.00;53.50;;;;;;5050380;28;20044;-69
2023/01/22 11:23:36;;;;;;;3.13;0.70;;;20.10;53.50;;;;;;5033325;28;20112;-68
2023/01/22 11:26:23;;;;;;;1.27;0.40;;;20.10;53.50;;;;;;5049922;28;20129;-67
2023/01/22 11:28:52;;;;;;;1.42;0.40;;;20.10;53.60;;;;;;5046411;28;20509;-65
2023/01/22 11:31:36;;;;;;;3.58;0.52;;;20.10;53.50;;;;;;5048376;28;20052;-67
2023/01/22 11:34:30;;;;;;;1.55;0.73;;;20.10;53.70;;;;;;5049380;28;20033;-67
2023/01/22 11:37:18;;;;;;;2.50;0.40;;;20.10;53.70;;;;;;5034270;28;20424;-69
2023/01/22 11:40:29;;;;;;;1.50;0.57;;;20.10;53.50;;;;;;5047103;28;20103;-66
2023/01/22 11:43:39;;;;;;;1.55;0.50;;;20.10;53.50;;;;;;5045459;28;20179;-68
2023/01/22 11:46:19;;;;;;;3.72;0.40;;;20.10;53.60;;;;;;5041916;28;20057;-66
2023/01/22 11:49:05;;;;;;;1.52;0.70;;;20.10;53.60;;;;;;5043779;28;20263;-65
2023/01/22 11:51:59;;;;;;;3.75;0.60;;;20.10;53.60;;;;;;5049660;28;20136;-65
2023/01/22 11:54:31;;;;;;;2.22;0.70;;;20.10;53.70;;;;;;5031143;28;20092;-65
2023/01/22 11:57:24;;;;;;;2.35;0.43;;;20.10;53.50;;;;;;5047094;28;20481;-65
2023/01/22 12:00:11;;;;;;;2.63;0.60;;;20.10;53.40;;;;;;5048249;28;20069;-65
2023/01/22 12:03:03;;;;;;;2.43;0.50;;;20.10;53.40;;;;;;5031749;28;20049;-65
2023/01/22 12:05:39;;;;;;;2.38;0.50;;;20.10;53.30;;;;;;5012974;28;20050;-65
2023/01/22 12:08:19;;;;;;;2.85;0.55;;;20.10;53.30;;;;;;5047608;28;20038;-64
2023/01/22 12:11:24;;;;;;;1.45;0.40;;;20.10;53.20;;;;;;5030898;28;20132;-64
2023/01/22 12:14:26;;;;;;;1.67;0.45;;;20.10;53.20;;;;;;5052393;28;20382;-64
2023/01/22 12:17:03;;;;;;;2.55;0.60;;;20.00;53.20;;;;;;5047287;28;20144;-65
2023/01/22 12:19:45;;;;;;;3.13;0.70;;;20.00;53.20;;;;;;5047995;28;20138;-65
2023/01/22 12:22:26;;;;;;;1.80;0.63;;;20.00;53.20;;;;;;5044847;28;20063;-64
2023/01/22 12:25:16;;;;;;;1.42;0.50;;;20.00;53.20;;;;;;5063055;28;20052;-64
2023/01/22 12:27:52;;;;;;;1.90;0.60;;;20.00;53.20;;;;;;5047916;28;20048;-63
2023/01/22 12:30:22;;;;;;;3.28;0.80;;;20.00;53.20;;;;;;5041443;28;20044;-64
2023/01/22 12:32:53;;;;;;;1.63;0.55;;;20.00;53.40;;;;;;5048215;28;20489;-63
2023/01/22 12:35:20;;;;;;;3.40;0.82;;;20.00;53.50;;;;;;5046963;28;20091;-65
2023/01/22 12:38:24;;;;;;;2.37;0.70;;;20.00;53.60;;;;;;5048459;28;20905;-66
2023/01/22 12:40:53;;;;;;;4.18;0.90;;;20.00;53.70;;;;;;5043862;28;20603;-65
2023/01/22 12:43:21;;;;;;;3.72;0.85;;;20.00;53.70;;;;;;5047495;28;20073;-66
2023/01/22 12:45:57;;;;;;;3.15;1.00;;;20.00;53.80;;;;;;5047799;28;20098;-66
2023/01/22 12:48:57;;;;;;;3.22;1.00;;;20.00;53.90;;;;;;5047152;28;20033;-67
2023/01/22 12:51:40;;;;;;;3.90;1.00;;;20.00;54.00;;;;;;5049082;28;20072;-65
2023/01/22 12:54:19;;;;;;;4.03;0.88;;;20.00;54.00;;;;;;5049146;28;20041;-65
2023/01/22 12:56:45;;;;;;;2.03;1.10;;;20.00;54.10;;;;;;5051203;28;20141;-66
2023/01/22 12:59:35;;;;;;;4.35;1.10;;;20.00;54.10;;;;;;5052447;28;20465;-67
2023/01/22 13:02:21;;;;;;;5.47;1.25;;;20.00;54.20;;;;;;5053387;28;20041;-66
2023/01/22 13:04:46;;;;;;;3.40;1.15;;;20.00;54.20;;;;;;5049667;28;20139;-66
2023/01/22 13:07:30;;;;;;;4.85;1.25;;;20.00;54.10;;;;;;5053011;28;20128;-64